sensor_id;sensor_type;location;lat;lon;timestamp;P1;durP1;ratioP1;P2;durP2;ratioP2
42646;SDS011;31319;53.678;-6.254;2023-02-28T00:00:12;6.00;;;1.63;;
42646;SDS011;31319;53.678;-6.254;2023-02-28T00:02:40;16.00;;;2.67;;
42646;SDS011;31319;53.678;-6.254;2023-02-28T00:05:07;5.78;;;1.88;;
42646;SDS011;31319;53.678;-6.254;2023-02-28T00:07:33;6.57;;;1.23;;
42646;SDS011;31319;53.678;-6.254;2023-02-28T00:09:59;6.68;;;1.55;;
42646;SDS011;31319;53.678;-6.254;2023-02-28T00:12:25;5.53;;;1.45;;
42646;SDS011;31319;53.678;-6.254;2023-02-28T00:14:51;4.35;;;2.13;;
42646;SDS011;31319;53.678;-6.254;2023-02-28T00:17:17;6.50;;;1.63;;
42646;SDS011;31319;53.678;-6.254;2023-02-28T00:19:48;8.43;;;2.15;;
42646;SDS011;31319;53.678;-6.254;2023-02-28T00:22:16;6.05;;;1.48;;
42646;SDS011;31319;53.678;-6.254;2023-02-28T00:24:43;7.32;;;2.65;;
42646;SDS011;31319;53.678;-6.254;2023-02-28T00:27:08;5.47;;;1.92;;
42646;SDS011;31319;53.678;-6.254;2023-02-28T00:29:34;7.18;;;1.70;;
42646;SDS011;31319;53.678;-6.254;2023-02-28T00:32:00;6.53;;;1.73;;
42646;SDS011;31319;53.678;-6.254;2023-02-28T00:34:26;6.38;;;1.77;;
42646;SDS011;31319;53.678;-6.254;2023-02-28T00:36:51;9.70;;;2.00;;
42646;SDS011;31319;53.678;-6.254;2023-02-28T00:39:17;8.40;;;2.03;;
42646;SDS011;31319;53.678;-6.254;2023-02-28T00:41:43;6.35;;;2.25;;
42646;SDS011;31319;53.678;-6.254;2023-02-28T00:44:08;5.88;;;1.50;;
42646;SDS011;31319;53.678;-6.254;2023-02-28T00:46:34;5.10;;;1.73;;
42646;SDS011;31319;53.678;-6.254;2023-02-28T00:49:00;14.65;;;3.17;;
42646;SDS011;31319;53.678;-6.254;2023-02-28T00:51:26;8.77;;;1.50;;
42646;SDS011;31319;53.678;-6.254;2023-02-28T00:53:51;5.05;;;1.58;;
42646;SDS011;31319;53.678;-6.254;2023-02-28T00:56:17;7.32;;;2.05;;
42646;SDS011;31319;53.678;-6.254;2023-02-28T00:58:42;8.40;;;1.83;;
42646;SDS011;31319;53.678;-6.254;2023-02-28T01:01:08;7.80;;;2.03;;
42646;SDS011;31319;53.678;-6.254;2023-02-28T01:03:34;3.65;;;1.20;;
42646;SDS011;31319;53.678;-6.254;2023-02-28T01:06:00;6.07;;;1.50;;
42646;SDS011;31319;53.678;-6.254;2023-02-28T01:08:25;7.07;;;1.38;;
42646;SDS011;31319;53.678;-6.254;2023-02-28T01:10:51;10.60;;;2.35;;
42646;SDS011;31319;53.678;-6.254;2023-02-28T01:13:18;6.22;;;1.30;;
42646;SDS011;31319;53.678;-6.254;2023-02-28T01:15:50;5.53;;;1.38;;
42646;SDS011;31319;53.678;-6.254;2023-02-28T01:18:18;10.23;;;1.67;;
42646;SDS011;31319;53.678;-6.254;2023-02-28T01:20:44;8.13;;;2.30;;
42646;SDS011;31319;53.678;-6.254;2023-02-28T01:23:11;6.18;;;2.00;;
42646;SDS011;31319;53.678;-6.254;2023-02-28T01:25:37;8.75;;;1.95;;
42646;SDS011;31319;53.678;-6.254;2023-02-28T01:28:03;8.13;;;1.55;;
42646;SDS011;31319;53.678;-6.254;2023-02-28T01:30:30;6.97;;;2.17;;
42646;SDS011;31319;53.678;-6.254;2023-02-28T01:32:57;5.38;;;1.55;;
42646;SDS011;31319;53.678;-6.254;2023-02-28T01:35:23;7.47;;;1.48;;
42646;SDS011;31319;53.678;-6.254;2023-02-28T01:37:49;7.43;;;2.05;;
42646;SDS011;31319;53.678;-6.254;2023-02-28T01:40:14;8.60;;;1.67;;
42646;SDS011;31319;53.678;-6.254;2023-02-28T01:42:40;9.15;;;2.05;;
42646;SDS011;31319;53.678;-6.254;2023-02-28T01:47:43;6.97;;;1.52;;
42646;SDS011;31319;53.678;-6.254;2023-02-28T01:50:20;7.28;;;1.40;;
42646;SDS011;31319;53.678;-6.254;2023-02-28T01:52:51;8.18;;;1.48;;
42646;SDS011;31319;53.678;-6.254;2023-02-28T01:55:21;7.38;;;1.52;;
42646;SDS011;31319;53.678;-6.254;2023-02-28T01:57:54;5.97;;;1.50;;
42646;SDS011;31319;53.678;-6.254;2023-02-28T02:00:23;5.28;;;1.38;;
42646;SDS011;31319;53.678;-6.254;2023-02-28T02:02:53;7.97;;;1.40;;
42646;SDS011;31319;53.678;-6.254;2023-02-28T02:05:24;7.45;;;1.75;;
42646;SDS011;31319;53.678;-6.254;2023-02-28T02:07:52;9.32;;;2.05;;
42646;SDS011;31319;53.678;-6.254;2023-02-28T02:15:43;6.15;;;1.83;;
42646;SDS011;31319;53.678;-6.254;2023-02-28T02:18:30;6.38;;;1.52;;
42646;SDS011;31319;53.678;-6.254;2023-02-28T02:21:04;6.82;;;1.30;;
42646;SDS011;31319;53.678;-6.254;2023-02-28T02:29:42;4.25;;;1.10;;
42646;SDS011;31319;53.678;-6.254;2023-02-28T02:35:11;3.85;;;1.10;;
42646;SDS011;31319;53.678;-6.254;2023-02-28T02:37:59;9.77;;;1.92;;
42646;SDS011;31319;53.678;-6.254;2023-02-28T02:40:35;8.40;;;2.70;;
42646;SDS011;31319;53.678;-6.254;2023-02-28T02:45:39;6.88;;;2.53;;
42646;SDS011;31319;53.678;-6.254;2023-02-28T02:48:11;4.43;;;2.38;;
42646;SDS011;31319;53.678;-6.254;2023-02-28T02:50:42;4.72;;;3.00;;
42646;SDS011;31319;53.678;-6.254;2023-02-28T02:53:10;6.60;;;3.05;;
42646;SDS011;31319;53.678;-6.254;2023-02-28T02:55:40;7.25;;;2.10;;
42646;SDS011;31319;53.678;-6.254;2023-02-28T02:58:10;8.05;;;2.30;;
42646;SDS011;31319;53.678;-6.254;2023-02-28T03:00:45;8.45;;;2.00;;
42646;SDS011;31319;53.678;-6.254;2023-02-28T03:03:14;8.50;;;2.38;;
42646;SDS011;31319;53.678;-6.254;2023-02-28T03:05:46;8.13;;;2.72;;
42646;SDS011;31319;53.678;-6.254;2023-02-28T03:08:14;4.80;;;2.50;;
42646;SDS011;31319;53.678;-6.254;2023-02-28T03:10:41;5.43;;;2.28;;
42646;SDS011;31319;53.678;-6.254;2023-02-28T03:24:04;8.23;;;2.35;;
42646;SDS011;31319;53.678;-6.254;2023-02-28T03:26:36;7.43;;;2.80;;
42646;SDS011;31319;53.678;-6.254;2023-02-28T03:29:10;12.10;;;2.88;;
42646;SDS011;31319;53.678;-6.254;2023-02-28T03:32:05;5.90;;;2.28;;
42646;SDS011;31319;53.678;-6.254;2023-02-28T03:34:39;6.00;;;1.55;;
42646;SDS011;31319;53.678;-6.254;2023-02-28T03:37:12;6.07;;;1.20;;
42646;SDS011;31319;53.678;-6.254;2023-02-28T03:39:45;6.53;;;1.33;;
42646;SDS011;31319;53.678;-6.254;2023-02-28T03:42:20;23.83;;;3.35;;
42646;SDS011;31319;53.678;-6.254;2023-02-28T03:47:58;6.13;;;1.95;;
42646;SDS011;31319;53.678;-6.254;2023-02-28T03:50:40;6.65;;;1.75;;
42646;SDS011;31319;53.678;-6.254;2023-02-28T03:53:15;3.33;;;1.17;;
42646;SDS011;31319;53.678;-6.254;2023-02-28T04:04:10;3.22;;;1.10;;
42646;SDS011;31319;53.678;-6.254;2023-02-28T04:06:37;9.27;;;1.90;;
42646;SDS011;31319;53.678;-6.254;2023-02-28T04:09:05;4.50;;;1.67;;
42646;SDS011;31319;53.678;-6.254;2023-02-28T04:11:37;6.80;;;1.90;;
42646;SDS011;31319;53.678;-6.254;2023-02-28T04:14:05;6.40;;;1.38;;
42646;SDS011;31319;53.678;-6.254;2023-02-28T04:16:32;8.07;;;1.90;;
42646;SDS011;31319;53.678;-6.254;2023-02-28T04:18:59;5.80;;;2.00;;
42646;SDS011;31319;53.678;-6.254;2023-02-28T04:21:30;7.22;;;1.95;;
42646;SDS011;31319;53.678;-6.254;2023-02-28T04:23:57;7.20;;;2.20;;
42646;SDS011;31319;53.678;-6.254;2023-02-28T04:26:29;6.40;;;1.83;;
42646;SDS011;31319;53.678;-6.254;2023-02-28T04:28:58;6.28;;;1.83;;
42646;SDS011;31319;53.678;-6.254;2023-02-28T04:31:25;6.15;;;1.77;;
42646;SDS011;31319;53.678;-6.254;2023-02-28T04:33:51;5.65;;;1.52;;
42646;SDS011;31319;53.678;-6.254;2023-02-28T04:36:17;6.63;;;1.70;;
42646;SDS011;31319;53.678;-6.254;2023-02-28T04:38:43;8.00;;;1.58;;
42646;SDS011;31319;53.678;-6.254;2023-02-28T04:41:10;12.57;;;1.70;;
42646;SDS011;31319;53.678;-6.254;2023-02-28T04:43:36;8.90;;;2.22;;
42646;SDS011;31319;53.678;-6.254;2023-02-28T04:46:02;5.07;;;1.33;;
42646;SDS011;31319;53.678;-6.254;2023-02-28T04:48:30;7.47;;;1.85;;
42646;SDS011;31319;53.678;-6.254;2023-02-28T04:51:03;5.35;;;1.65;;
42646;SDS011;31319;53.678;-6.254;2023-02-28T04:53:31;9.20;;;2.72;;
42646;SDS011;31319;53.678;-6.254;2023-02-28T04:55:57;7.85;;;1.50;;
42646;SDS011;31319;53.678;-6.254;2023-02-28T04:58:23;5.53;;;1.38;;
42646;SDS011;31319;53.678;-6.254;2023-02-28T05:00:50;7.18;;;1.25;;
42646;SDS011;31319;53.678;-6.254;2023-02-28T05:03:20;5.35;;;1.17;;
42646;SDS011;31319;53.678;-6.254;2023-02-28T05:05:47;3.92;;;1.75;;
42646;SDS011;31319;53.678;-6.254;2023-02-28T05:08:13;7.10;;;1.77;;
42646;SDS011;31319;53.678;-6.254;2023-02-28T05:10:38;3.50;;;1.65;;
42646;SDS011;31319;53.678;-6.254;2023-02-28T05:13:05;5.90;;;2.35;;
42646;SDS011;31319;53.678;-6.254;2023-02-28T05:15:30;4.80;;;2.28;;
42646;SDS011;31319;53.678;-6.254;2023-02-28T05:17:56;4.60;;;2.05;;
42646;SDS011;31319;53.678;-6.254;2023-02-28T05:20:21;9.63;;;2.88;;
42646;SDS011;31319;53.678;-6.254;2023-02-28T05:22:47;5.60;;;2.65;;
42646;SDS011;31319;53.678;-6.254;2023-02-28T05:25:18;7.07;;;2.10;;
42646;SDS011;31319;53.678;-6.254;2023-02-28T05:27:45;5.30;;;2.00;;
42646;SDS011;31319;53.678;-6.254;2023-02-28T05:30:11;4.75;;;1.77;;
42646;SDS011;31319;53.678;-6.254;2023-02-28T05:32:37;8.68;;;2.58;;
42646;SDS011;31319;53.678;-6.254;2023-02-28T05:35:04;4.57;;;2.05;;
42646;SDS011;31319;53.678;-6.254;2023-02-28T05:37:30;5.93;;;2.22;;
42646;SDS011;31319;53.678;-6.254;2023-02-28T05:39:56;4.82;;;2.00;;
42646;SDS011;31319;53.678;-6.254;2023-02-28T05:42:21;5.32;;;2.15;;
42646;SDS011;31319;53.678;-6.254;2023-02-28T05:44:47;8.48;;;2.05;;
42646;SDS011;31319;53.678;-6.254;2023-02-28T05:47:13;8.60;;;3.20;;
42646;SDS011;31319;53.678;-6.254;2023-02-28T05:49:40;4.03;;;1.70;;
42646;SDS011;31319;53.678;-6.254;2023-02-28T05:52:07;7.13;;;2.25;;
42646;SDS011;31319;53.678;-6.254;2023-02-28T05:54:33;5.85;;;1.90;;
42646;SDS011;31319;53.678;-6.254;2023-02-28T05:56:59;6.35;;;2.00;;
42646;SDS011;31319;53.678;-6.254;2023-02-28T05:59:25;7.55;;;2.38;;
42646;SDS011;31319;53.678;-6.254;2023-02-28T06:01:50;4.53;;;1.70;;
42646;SDS011;31319;53.678;-6.254;2023-02-28T06:04:19;5.63;;;1.75;;
42646;SDS011;31319;53.678;-6.254;2023-02-28T06:06:46;6.18;;;2.35;;
42646;SDS011;31319;53.678;-6.254;2023-02-28T06:09:12;5.90;;;2.65;;
42646;SDS011;31319;53.678;-6.254;2023-02-28T06:11:38;7.35;;;2.40;;
42646;SDS011;31319;53.678;-6.254;2023-02-28T06:14:04;6.35;;;2.80;;
42646;SDS011;31319;53.678;-6.254;2023-02-28T06:16:30;7.45;;;1.85;;
42646;SDS011;31319;53.678;-6.254;2023-02-28T06:18:58;4.57;;;1.20;;
42646;SDS011;31319;53.678;-6.254;2023-02-28T06:21:26;6.15;;;2.00;;
42646;SDS011;31319;53.678;-6.254;2023-02-28T06:23:55;5.75;;;1.88;;
42646;SDS011;31319;53.678;-6.254;2023-02-28T06:26:21;3.75;;;1.80;;
42646;SDS011;31319;53.678;-6.254;2023-02-28T06:28:47;8.55;;;2.10;;
42646;SDS011;31319;53.678;-6.254;2023-02-28T06:31:14;6.90;;;2.92;;
42646;SDS011;31319;53.678;-6.254;2023-02-28T06:33:41;6.57;;;2.25;;
42646;SDS011;31319;53.678;-6.254;2023-02-28T06:36:09;4.97;;;1.88;;
42646;SDS011;31319;53.678;-6.254;2023-02-28T06:38:36;5.25;;;1.98;;
42646;SDS011;31319;53.678;-6.254;2023-02-28T06:41:02;2.50;;;1.20;;
42646;SDS011;31319;53.678;-6.254;2023-02-28T06:43:29;3.58;;;1.23;;
42646;SDS011;31319;53.678;-6.254;2023-02-28T06:45:58;5.25;;;1.45;;
42646;SDS011;31319;53.678;-6.254;2023-02-28T06:48:25;6.32;;;1.75;;
42646;SDS011;31319;53.678;-6.254;2023-02-28T06:50:51;4.20;;;1.40;;
42646;SDS011;31319;53.678;-6.254;2023-02-28T06:53:17;10.95;;;2.15;;
42646;SDS011;31319;53.678;-6.254;2023-02-28T06:55:43;9.32;;;2.38;;
42646;SDS011;31319;53.678;-6.254;2023-02-28T06:58:09;5.63;;;1.88;;
42646;SDS011;31319;53.678;-6.254;2023-02-28T07:00:41;5.53;;;1.35;;
42646;SDS011;31319;53.678;-6.254;2023-02-28T07:03:07;3.95;;;1.35;;
42646;SDS011;31319;53.678;-6.254;2023-02-28T07:05:36;4.45;;;1.55;;
42646;SDS011;31319;53.678;-6.254;2023-02-28T07:08:03;10.55;;;2.67;;
42646;SDS011;31319;53.678;-6.254;2023-02-28T07:10:31;4.85;;;1.38;;
42646;SDS011;31319;53.678;-6.254;2023-02-28T07:12:58;12.35;;;2.08;;
42646;SDS011;31319;53.678;-6.254;2023-02-28T07:15:24;3.47;;;1.25;;
42646;SDS011;31319;53.678;-6.254;2023-02-28T07:17:50;8.30;;;1.10;;
42646;SDS011;31319;53.678;-6.254;2023-02-28T07:20:15;7.70;;;1.63;;
42646;SDS011;31319;53.678;-6.254;2023-02-28T07:22:41;6.93;;;1.55;;
42646;SDS011;31319;53.678;-6.254;2023-02-28T07:25:07;4.65;;;1.60;;
42646;SDS011;31319;53.678;-6.254;2023-02-28T07:27:33;4.05;;;1.38;;
42646;SDS011;31319;53.678;-6.254;2023-02-28T07:29:59;4.57;;;1.48;;
42646;SDS011;31319;53.678;-6.254;2023-02-28T07:32:26;3.45;;;1.70;;
42646;SDS011;31319;53.678;-6.254;2023-02-28T07:34:52;3.17;;;1.33;;
42646;SDS011;31319;53.678;-6.254;2023-02-28T07:37:18;3.53;;;1.00;;
42646;SDS011;31319;53.678;-6.254;2023-02-28T07:39:44;6.10;;;1.90;;
42646;SDS011;31319;53.678;-6.254;2023-02-28T07:42:09;8.02;;;2.20;;
42646;SDS011;31319;53.678;-6.254;2023-02-28T07:44:37;4.05;;;1.65;;
42646;SDS011;31319;53.678;-6.254;2023-02-28T07:47:08;4.95;;;1.70;;
42646;SDS011;31319;53.678;-6.254;2023-02-28T07:49:38;5.00;;;1.33;;
42646;SDS011;31319;53.678;-6.254;2023-02-28T07:52:04;8.18;;;1.85;;
42646;SDS011;31319;53.678;-6.254;2023-02-28T07:54:31;2.95;;;1.10;;
42646;SDS011;31319;53.678;-6.254;2023-02-28T07:56:57;4.97;;;1.15;;
42646;SDS011;31319;53.678;-6.254;2023-02-28T07:59:23;5.65;;;1.42;;
42646;SDS011;31319;53.678;-6.254;2023-02-28T08:01:49;5.97;;;1.15;;
42646;SDS011;31319;53.678;-6.254;2023-02-28T08:04:16;2.72;;;1.13;;
42646;SDS011;31319;53.678;-6.254;2023-02-28T08:06:42;2.92;;;1.10;;
42646;SDS011;31319;53.678;-6.254;2023-02-28T08:09:08;5.47;;;1.48;;
42646;SDS011;31319;53.678;-6.254;2023-02-28T08:11:34;5.63;;;1.25;;
42646;SDS011;31319;53.678;-6.254;2023-02-28T08:14:00;5.35;;;1.30;;
42646;SDS011;31319;53.678;-6.254;2023-02-28T08:16:25;5.80;;;1.65;;
42646;SDS011;31319;53.678;-6.254;2023-02-28T08:18:51;3.25;;;1.13;;
42646;SDS011;31319;53.678;-6.254;2023-02-28T08:21:18;4.30;;;1.15;;
42646;SDS011;31319;53.678;-6.254;2023-02-28T08:23:47;3.33;;;1.17;;
42646;SDS011;31319;53.678;-6.254;2023-02-28T08:26:18;6.47;;;1.30;;
42646;SDS011;31319;53.678;-6.254;2023-02-28T08:28:44;3.33;;;1.10;;
42646;SDS011;31319;53.678;-6.254;2023-02-28T08:31:10;3.95;;;0.75;;
42646;SDS011;31319;53.678;-6.254;2023-02-28T08:33:39;3.55;;;0.98;;
42646;SDS011;31319;53.678;-6.254;2023-02-28T08:36:06;2.53;;;1.13;;
42646;SDS011;31319;53.678;-6.254;2023-02-28T08:38:34;5.25;;;1.33;;
42646;SDS011;31319;53.678;-6.254;2023-02-28T08:41:01;5.93;;;1.25;;
42646;SDS011;31319;53.678;-6.254;2023-02-28T08:43:31;3.38;;;1.35;;
42646;SDS011;31319;53.678;-6.254;2023-02-28T08:45:57;3.65;;;1.20;;
42646;SDS011;31319;53.678;-6.254;2023-02-28T08:48:23;2.97;;;1.40;;
42646;SDS011;31319;53.678;-6.254;2023-02-28T08:50:59;5.50;;;2.22;;
42646;SDS011;31319;53.678;-6.254;2023-02-28T08:53:30;4.88;;;1.67;;
42646;SDS011;31319;53.678;-6.254;2023-02-28T08:56:08;6.10;;;2.47;;
42646;SDS011;31319;53.678;-6.254;2023-02-28T09:01:09;4.57;;;1.27;;
42646;SDS011;31319;53.678;-6.254;2023-02-28T09:03:37;2.85;;;1.08;;
42646;SDS011;31319;53.678;-6.254;2023-02-28T09:06:03;1.33;;;1.02;;
42646;SDS011;31319;53.678;-6.254;2023-02-28T09:08:30;3.05;;;1.10;;
42646;SDS011;31319;53.678;-6.254;2023-02-28T09:10:56;4.20;;;1.25;;
42646;SDS011;31319;53.678;-6.254;2023-02-28T09:13:23;2.05;;;0.90;;
42646;SDS011;31319;53.678;-6.254;2023-02-28T09:15:50;11.43;;;1.23;;
42646;SDS011;31319;53.678;-6.254;2023-02-28T09:18:17;2.15;;;0.63;;
42646;SDS011;31319;53.678;-6.254;2023-02-28T09:20:43;3.58;;;1.08;;
42646;SDS011;31319;53.678;-6.254;2023-02-28T09:23:09;5.50;;;1.15;;
42646;SDS011;31319;53.678;-6.254;2023-02-28T09:25:36;4.25;;;1.10;;
42646;SDS011;31319;53.678;-6.254;2023-02-28T09:28:03;2.90;;;0.95;;
42646;SDS011;31319;53.678;-6.254;2023-02-28T09:30:29;1.60;;;1.00;;
42646;SDS011;31319;53.678;-6.254;2023-02-28T09:32:55;8.18;;;1.65;;
42646;SDS011;31319;53.678;-6.254;2023-02-28T09:35:21;4.28;;;1.30;;
42646;SDS011;31319;53.678;-6.254;2023-02-28T09:37:51;2.85;;;1.30;;
42646;SDS011;31319;53.678;-6.254;2023-02-28T09:40:17;4.50;;;1.42;;
42646;SDS011;31319;53.678;-6.254;2023-02-28T09:42:49;1.75;;;0.65;;
42646;SDS011;31319;53.678;-6.254;2023-02-28T09:45:26;2.85;;;0.90;;
42646;SDS011;31319;53.678;-6.254;2023-02-28T09:48:11;4.22;;;0.93;;
42646;SDS011;31319;53.678;-6.254;2023-02-28T09:50:41;3.95;;;1.00;;
42646;SDS011;31319;53.678;-6.254;2023-02-28T09:53:27;1.90;;;0.80;;
42646;SDS011;31319;53.678;-6.254;2023-02-28T09:56:09;2.30;;;0.90;;
42646;SDS011;31319;53.678;-6.254;2023-02-28T09:58:42;2.60;;;0.70;;
42646;SDS011;31319;53.678;-6.254;2023-02-28T10:01:18;1.52;;;0.70;;
42646;SDS011;31319;53.678;-6.254;2023-02-28T10:06:44;2.28;;;0.95;;
42646;SDS011;31319;53.678;-6.254;2023-02-28T10:09:15;0.85;;;0.70;;
42646;SDS011;31319;53.678;-6.254;2023-02-28T10:11:45;1.92;;;0.77;;
42646;SDS011;31319;53.678;-6.254;2023-02-28T10:14:18;4.18;;;0.82;;
42646;SDS011;31319;53.678;-6.254;2023-02-28T10:19:35;0.80;;;0.50;;
42646;SDS011;31319;53.678;-6.254;2023-02-28T10:25:20;2.20;;;0.70;;
42646;SDS011;31319;53.678;-6.254;2023-02-28T10:27:49;2.88;;;0.75;;
42646;SDS011;31319;53.678;-6.254;2023-02-28T10:30:18;2.80;;;0.68;;
42646;SDS011;31319;53.678;-6.254;2023-02-28T10:32:51;1.98;;;0.90;;
42646;SDS011;31319;53.678;-6.254;2023-02-28T10:35:25;1.98;;;0.70;;
42646;SDS011;31319;53.678;-6.254;2023-02-28T10:37:56;0.63;;;0.52;;
42646;SDS011;31319;53.678;-6.254;2023-02-28T10:42:59;1.10;;;0.60;;
42646;SDS011;31319;53.678;-6.254;2023-02-28T10:45:30;1.80;;;0.85;;
42646;SDS011;31319;53.678;-6.254;2023-02-28T10:47:58;1.83;;;0.68;;
42646;SDS011;31319;53.678;-6.254;2023-02-28T10:50:27;0.80;;;0.63;;
42646;SDS011;31319;53.678;-6.254;2023-02-28T10:52:53;5.25;;;0.80;;
42646;SDS011;31319;53.678;-6.254;2023-02-28T10:55:21;1.15;;;0.40;;
42646;SDS011;31319;53.678;-6.254;2023-02-28T10:57:50;2.42;;;0.50;;
42646;SDS011;31319;53.678;-6.254;2023-02-28T11:00:21;4.45;;;0.93;;
42646;SDS011;31319;53.678;-6.254;2023-02-28T11:02:50;1.65;;;0.65;;
42646;SDS011;31319;53.678;-6.254;2023-02-28T11:05:27;1.95;;;0.70;;
42646;SDS011;31319;53.678;-6.254;2023-02-28T11:08:03;4.13;;;0.77;;
42646;SDS011;31319;53.678;-6.254;2023-02-28T11:10:30;3.30;;;1.20;;
42646;SDS011;31319;53.678;-6.254;2023-02-28T11:13:00;4.53;;;2.40;;
42646;SDS011;31319;53.678;-6.254;2023-02-28T11:15:30;4.35;;;1.38;;
42646;SDS011;31319;53.678;-6.254;2023-02-28T11:20:46;2.00;;;1.00;;
42646;SDS011;31319;53.678;-6.254;2023-02-28T11:23:15;4.32;;;1.75;;
42646;SDS011;31319;53.678;-6.254;2023-02-28T11:25:46;3.20;;;1.00;;
42646;SDS011;31319;53.678;-6.254;2023-02-28T11:36:21;1.80;;;0.90;;
42646;SDS011;31319;53.678;-6.254;2023-02-28T11:38:55;3.35;;;1.40;;
42646;SDS011;31319;53.678;-6.254;2023-02-28T11:52:14;4.22;;;0.85;;
42646;SDS011;31319;53.678;-6.254;2023-02-28T11:54:54;1.27;;;0.50;;
42646;SDS011;31319;53.678;-6.254;2023-02-28T11:57:31;6.50;;;1.55;;
42646;SDS011;31319;53.678;-6.254;2023-02-28T12:05:20;3.00;;;0.98;;
42646;SDS011;31319;53.678;-6.254;2023-02-28T12:08:00;4.82;;;1.00;;
42646;SDS011;31319;53.678;-6.254;2023-02-28T12:10:59;2.00;;;0.80;;
42646;SDS011;31319;53.678;-6.254;2023-02-28T12:13:52;2.35;;;0.73;;
42646;SDS011;31319;53.678;-6.254;2023-02-28T12:22:03;2.78;;;0.93;;
42646;SDS011;31319;53.678;-6.254;2023-02-28T12:28:10;7.82;;;1.40;;
42646;SDS011;31319;53.678;-6.254;2023-02-28T12:30:41;3.30;;;1.10;;
42646;SDS011;31319;53.678;-6.254;2023-02-28T12:33:20;1.00;;;0.82;;
42646;SDS011;31319;53.678;-6.254;2023-02-28T12:35:58;5.32;;;1.17;;
42646;SDS011;31319;53.678;-6.254;2023-02-28T12:38:27;1.50;;;0.85;;
42646;SDS011;31319;53.678;-6.254;2023-02-28T12:43:39;2.88;;;0.88;;
42646;SDS011;31319;53.678;-6.254;2023-02-28T12:46:16;4.50;;;1.50;;
42646;SDS011;31319;53.678;-6.254;2023-02-28T12:48:48;9.40;;;1.45;;
42646;SDS011;31319;53.678;-6.254;2023-02-28T12:51:19;2.92;;;0.70;;
42646;SDS011;31319;53.678;-6.254;2023-02-28T12:56:38;2.58;;;1.23;;
42646;SDS011;31319;53.678;-6.254;2023-02-28T13:02:09;1.65;;;0.95;;
42646;SDS011;31319;53.678;-6.254;2023-02-28T13:11:33;18.02;;;2.55;;
42646;SDS011;31319;53.678;-6.254;2023-02-28T13:14:03;4.95;;;1.48;;
42646;SDS011;31319;53.678;-6.254;2023-02-28T13:16:51;3.28;;;1.00;;
42646;SDS011;31319;53.678;-6.254;2023-02-28T13:19:39;3.97;;;1.42;;
42646;SDS011;31319;53.678;-6.254;2023-02-28T13:22:18;4.20;;;1.20;;
42646;SDS011;31319;53.678;-6.254;2023-02-28T13:24:47;2.00;;;1.10;;
42646;SDS011;31319;53.678;-6.254;2023-02-28T13:29:49;2.67;;;1.20;;
42646;SDS011;31319;53.678;-6.254;2023-02-28T13:32:34;3.38;;;1.67;;
42646;SDS011;31319;53.678;-6.254;2023-02-28T13:39:58;3.72;;;0.80;;
42646;SDS011;31319;53.678;-6.254;2023-02-28T13:42:48;3.90;;;0.88;;
42646;SDS011;31319;53.678;-6.254;2023-02-28T13:45:27;4.20;;;1.30;;
42646;SDS011;31319;53.678;-6.254;2023-02-28T13:50:55;3.53;;;0.90;;
42646;SDS011;31319;53.678;-6.254;2023-02-28T13:53:27;7.35;;;1.70;;
42646;SDS011;31319;53.678;-6.254;2023-02-28T13:56:10;3.80;;;1.10;;
42646;SDS011;31319;53.678;-6.254;2023-02-28T13:59:20;4.38;;;1.02;;
42646;SDS011;31319;53.678;-6.254;2023-02-28T14:04:59;1.90;;;1.30;;
42646;SDS011;31319;53.678;-6.254;2023-02-28T14:07:28;5.78;;;1.85;;
42646;SDS011;31319;53.678;-6.254;2023-02-28T14:09:59;3.35;;;1.55;;
42646;SDS011;31319;53.678;-6.254;2023-02-28T14:15:38;3.08;;;1.50;;
42646;SDS011;31319;53.678;-6.254;2023-02-28T14:18:24;1.95;;;1.42;;
42646;SDS011;31319;53.678;-6.254;2023-02-28T14:20:52;3.90;;;1.85;;
42646;SDS011;31319;53.678;-6.254;2023-02-28T14:32:10;6.20;;;2.22;;
42646;SDS011;31319;53.678;-6.254;2023-02-28T14:38:01;2.40;;;0.82;;
42646;SDS011;31319;53.678;-6.254;2023-02-28T14:40:35;11.07;;;1.60;;
42646;SDS011;31319;53.678;-6.254;2023-02-28T14:43:04;4.25;;;1.20;;
42646;SDS011;31319;53.678;-6.254;2023-02-28T14:45:32;4.30;;;1.20;;
42646;SDS011;31319;53.678;-6.254;2023-02-28T14:48:00;2.75;;;1.20;;
42646;SDS011;31319;53.678;-6.254;2023-02-28T14:50:31;4.90;;;1.08;;
42646;SDS011;31319;53.678;-6.254;2023-02-28T14:53:00;7.93;;;1.90;;
42646;SDS011;31319;53.678;-6.254;2023-02-28T14:55:45;3.63;;;1.05;;
42646;SDS011;31319;53.678;-6.254;2023-02-28T14:58:19;9.88;;;1.63;;
42646;SDS011;31319;53.678;-6.254;2023-02-28T15:00:47;6.75;;;2.13;;
42646;SDS011;31319;53.678;-6.254;2023-02-28T15:03:21;6.40;;;1.83;;
42646;SDS011;31319;53.678;-6.254;2023-02-28T15:06:20;4.05;;;1.85;;
42646;SDS011;31319;53.678;-6.254;2023-02-28T15:08:42;8.70;;;2.42;;
42646;SDS011;31319;53.678;-6.254;2023-02-28T15:11:09;5.88;;;2.42;;
42646;SDS011;31319;53.678;-6.254;2023-02-28T15:13:40;3.20;;;2.00;;
42646;SDS011;31319;53.678;-6.254;2023-02-28T15:16:10;5.75;;;2.13;;
42646;SDS011;31319;53.678;-6.254;2023-02-28T15:21:18;9.55;;;2.67;;
42646;SDS011;31319;53.678;-6.254;2023-02-28T15:23:54;3.88;;;1.55;;
42646;SDS011;31319;53.678;-6.254;2023-02-28T15:26:22;5.18;;;1.75;;
42646;SDS011;31319;53.678;-6.254;2023-02-28T15:28:54;7.22;;;2.00;;
42646;SDS011;31319;53.678;-6.254;2023-02-28T15:31:32;7.20;;;1.88;;
42646;SDS011;31319;53.678;-6.254;2023-02-28T15:34:04;7.22;;;1.83;;
42646;SDS011;31319;53.678;-6.254;2023-02-28T15:36:32;11.57;;;2.10;;
42646;SDS011;31319;53.678;-6.254;2023-02-28T15:39:02;5.72;;;2.03;;
42646;SDS011;31319;53.678;-6.254;2023-02-28T15:41:43;5.78;;;2.47;;
42646;SDS011;31319;53.678;-6.254;2023-02-28T15:44:25;7.25;;;2.03;;
42646;SDS011;31319;53.678;-6.254;2023-02-28T15:49:23;3.55;;;1.73;;
42646;SDS011;31319;53.678;-6.254;2023-02-28T15:51:49;5.72;;;1.80;;
42646;SDS011;31319;53.678;-6.254;2023-02-28T15:54:22;9.88;;;2.53;;
42646;SDS011;31319;53.678;-6.254;2023-02-28T15:56:53;4.20;;;1.88;;
42646;SDS011;31319;53.678;-6.254;2023-02-28T15:59:23;5.53;;;2.60;;
42646;SDS011;31319;53.678;-6.254;2023-02-28T16:04:35;3.95;;;2.13;;
42646;SDS011;31319;53.678;-6.254;2023-02-28T16:07:05;6.45;;;1.63;;
42646;SDS011;31319;53.678;-6.254;2023-02-28T16:09:31;7.28;;;1.95;;
42646;SDS011;31319;53.678;-6.254;2023-02-28T16:12:00;9.90;;;3.08;;
42646;SDS011;31319;53.678;-6.254;2023-02-28T16:14:28;8.07;;;2.38;;
42646;SDS011;31319;53.678;-6.254;2023-02-28T16:17:04;6.13;;;2.03;;
42646;SDS011;31319;53.678;-6.254;2023-02-28T16:19:39;9.93;;;3.47;;
42646;SDS011;31319;53.678;-6.254;2023-02-28T16:22:05;6.68;;;2.72;;
42646;SDS011;31319;53.678;-6.254;2023-02-28T16:24:30;6.68;;;1.98;;
42646;SDS011;31319;53.678;-6.254;2023-02-28T16:26:56;4.18;;;2.25;;
42646;SDS011;31319;53.678;-6.254;2023-02-28T16:29:29;6.15;;;1.65;;
42646;SDS011;31319;53.678;-6.254;2023-02-28T16:31:59;5.25;;;1.70;;
42646;SDS011;31319;53.678;-6.254;2023-02-28T16:34:26;3.00;;;1.45;;
42646;SDS011;31319;53.678;-6.254;2023-02-28T16:36:52;3.80;;;1.55;;
42646;SDS011;31319;53.678;-6.254;2023-02-28T16:39:18;3.38;;;1.67;;
42646;SDS011;31319;53.678;-6.254;2023-02-28T16:41:47;4.13;;;1.67;;
42646;SDS011;31319;53.678;-6.254;2023-02-28T16:46:53;4.80;;;2.03;;
42646;SDS011;31319;53.678;-6.254;2023-02-28T16:49:18;4.80;;;2.22;;
42646;SDS011;31319;53.678;-6.254;2023-02-28T16:51:44;5.13;;;1.60;;
42646;SDS011;31319;53.678;-6.254;2023-02-28T16:54:10;9.10;;;2.47;;
42646;SDS011;31319;53.678;-6.254;2023-02-28T16:56:35;2.85;;;1.45;;
42646;SDS011;31319;53.678;-6.254;2023-02-28T16:59:08;2.03;;;1.20;;
42646;SDS011;31319;53.678;-6.254;2023-02-28T17:01:35;4.88;;;1.67;;
42646;SDS011;31319;53.678;-6.254;2023-02-28T17:04:01;4.00;;;1.38;;
42646;SDS011;31319;53.678;-6.254;2023-02-28T17:06:27;4.88;;;1.80;;
42646;SDS011;31319;53.678;-6.254;2023-02-28T17:08:55;4.28;;;1.83;;
42646;SDS011;31319;53.678;-6.254;2023-02-28T17:11:21;3.17;;;1.60;;
42646;SDS011;31319;53.678;-6.254;2023-02-28T17:13:47;3.88;;;2.00;;